Terminal Aerodrome Forecast
Issued by NWS Mt. Holly, NJ

Home | Current Version | Previous Version | Text Only | Print | Product List | Glossary On
Versions: 1 2 3 4 5 6 7 8 9 10 11 12 13 14 15 16 17 18 19 20 21 22 23
000
FTUS41 KPHI 200559
TAFILG
TAF
KILG 200559Z 2006/2106 VRB03KT P6SM BKN250
      TEMPO 2007/2011 3SM BR
     FM201600 16005KT 5SM -RA SCT030 OVC070
     FM201900 14006KT 2SM -RA BR BKN018 OVC035
     FM202100 15004KT 4SM BR BKN008 OVC015
     FM210300 VRB03KT 3SM BR OVC004=

USA.gov is the U.S. government's official web portal to all federal, state and local government web resources and services.